createdAt,value
2023-05-11T00:03:03.515Z,94770.16
2023-05-11T00:06:11.690Z,94763.69
2023-05-11T00:09:19.777Z,94767.31
2023-05-11T00:12:28.129Z,94766.06
2023-05-11T00:15:37.943Z,94761.69
2023-05-11T00:18:46.430Z,94768.47
2023-05-11T00:21:57.582Z,94764.81
2023-05-11T00:25:06.826Z,94755.47
2023-05-11T00:28:15.074Z,94758.31
2023-05-11T00:31:24.635Z,94761.72
2023-05-11T00:34:32.839Z,94753.09
2023-05-11T00:37:41.596Z,94750.47
2023-05-11T00:40:50.984Z,94757.53
2023-05-11T00:43:59.110Z,94744.94
2023-05-11T00:47:08.840Z,94742.41
2023-05-11T00:50:18.883Z,94747.50
2023-05-11T00:53:27.364Z,94744.63
2023-05-11T00:56:35.691Z,94746.09
2023-05-11T00:59:43.993Z,94752.00
2023-05-11T01:02:54.502Z,94748.13
2023-05-11T01:06:11.552Z,94748.53
2023-05-11T01:09:35.135Z,94750.28
2023-05-11T01:12:57.852Z,94742.47
2023-05-11T01:16:18.640Z,94744.13
2023-05-11T01:19:45.647Z,94747.28
2023-05-11T01:23:34.041Z,94749.06
2023-05-11T01:27:21.922Z,94743.34
2023-05-11T01:30:37.083Z,94741.84
2023-05-11T01:33:52.623Z,94737.47
2023-05-11T01:37:10.455Z,94741.34
2023-05-11T01:40:23.531Z,94738.19
2023-05-11T01:43:38.267Z,94746.63
2023-05-11T01:46:51.579Z,94738.72
2023-05-11T01:50:05.195Z,94744.34
2023-05-11T01:53:16.868Z,94740.19
2023-05-11T01:56:29.034Z,94741.34
2023-05-11T01:59:41.179Z,94739.06
2023-05-11T02:02:51.802Z,94739.31
2023-05-11T02:06:03.013Z,94739.88
2023-05-11T02:09:14.149Z,94732.88
2023-05-11T02:12:23.630Z,94731.38
2023-05-11T02:15:32.760Z,94728.34
2023-05-11T02:18:44.074Z,94728.34
2023-05-11T02:21:56.747Z,94726.81
2023-05-11T02:25:06.689Z,94723.41
2023-05-11T02:28:15.335Z,94729.97
2023-05-11T02:31:30.062Z,94727.44
2023-05-11T02:34:45.258Z,94727.84
2023-05-11T02:37:59.145Z,94724.31
2023-05-11T02:41:17.216Z,94726.06
2023-05-11T02:44:33.293Z,94726.97
2023-05-11T02:47:48.460Z,94725.00
2023-05-11T02:51:07.222Z,94731.16
2023-05-11T02:54:23.485Z,94727.81
2023-05-11T02:57:33.691Z,94723.16
2023-05-11T03:00:46.828Z,94722.22
2023-05-11T03:03:55.576Z,94720.38
2023-05-11T03:07:07.899Z,94714.53
2023-05-11T03:10:16.381Z,94713.38
2023-05-11T03:13:28.095Z,94708.53
2023-05-11T03:16:38.813Z,94715.50
2023-05-11T03:19:49.441Z,94714.78
2023-05-11T03:23:02.359Z,94705.19
2023-05-11T03:26:13.049Z,94710.47
2023-05-11T03:29:23.691Z,94702.84
2023-05-11T03:32:32.922Z,94709.59
2023-05-11T03:35:47.489Z,94704.72
2023-05-11T03:39:03.219Z,94698.28
2023-05-11T03:42:16.297Z,94696.28
2023-05-11T03:45:28.503Z,94696.41
2023-05-11T03:48:37.041Z,94703.59
2023-05-11T03:51:46.346Z,94695.91
2023-05-11T03:54:56.178Z,94689.88
2023-05-11T03:58:08.625Z,94697.41
2023-05-11T04:01:16.984Z,94689.59
2023-05-11T04:04:31.243Z,94695.31
2023-05-11T04:07:41.138Z,94684.66
2023-05-11T04:10:51.156Z,94683.72
2023-05-11T04:13:59.290Z,94683.66
2023-05-11T04:17:08.665Z,94684.22
2023-05-11T04:20:17.197Z,94687.06
2023-05-11T04:23:25.937Z,94686.88
2023-05-11T04:26:35.405Z,94680.56
2023-05-11T04:29:44.983Z,94686.47
2023-05-11T04:32:54.229Z,94687.31
2023-05-11T04:36:02.676Z,94692.38
2023-05-11T04:39:11.264Z,94697.22
2023-05-11T04:42:21.868Z,94690.22
2023-05-11T04:45:32.861Z,94694.00
2023-05-11T04:48:41.961Z,94693.69
2023-05-11T04:51:50.524Z,94697.41
2023-05-11T04:54:59.341Z,94695.25
2023-05-11T04:58:09.198Z,94694.59
2023-05-11T05:01:17.570Z,94699.81
2023-05-11T05:04:25.843Z,94700.94
2023-05-11T05:07:35.136Z,94699.31
2023-05-11T05:10:45.570Z,94697.66
2023-05-11T05:13:56.149Z,94703.72
2023-05-11T05:17:04.670Z,94712.56
2023-05-11T05:20:13.499Z,94708.50
2023-05-11T05:23:22.025Z,94702.72
2023-05-11T05:26:30.317Z,94695.00
2023-05-11T05:29:40.752Z,94708.91
2023-05-11T05:32:50.965Z,94704.94
2023-05-11T05:35:59.354Z,94708.91
2023-05-11T05:39:11.902Z,94714.19
2023-05-11T05:42:20.154Z,94719.03
2023-05-11T05:45:30.804Z,94712.50
2023-05-11T05:48:39.454Z,94717.34
2023-05-11T05:51:47.963Z,94715.47
2023-05-11T05:54:56.244Z,94719.94
2023-05-11T05:58:04.789Z,94721.91
2023-05-11T06:01:14.575Z,94715.91
2023-05-11T06:04:22.971Z,94712.94
2023-05-11T06:07:31.458Z,94713.97
2023-05-11T06:10:39.985Z,94723.91
2023-05-11T06:13:50.093Z,94722.72
2023-05-11T06:16:59.890Z,94722.03
2023-05-11T06:20:11.362Z,94726.56
2023-05-11T06:23:19.683Z,94727.44
2023-05-11T06:26:28.668Z,94722.78
2023-05-11T06:29:37.157Z,94729.47
2023-05-11T06:32:47.387Z,94733.25
2023-05-11T06:35:58.551Z,94732.38
2023-05-11T06:39:08.685Z,94732.47
2023-05-11T06:42:17.058Z,94729.41
2023-05-11T06:45:25.248Z,94728.03
2023-05-11T06:48:35.937Z,94732.38
2023-05-11T06:51:45.287Z,94726.63
2023-05-11T06:54:53.461Z,94730.22
2023-05-11T06:58:01.684Z,94729.41
2023-05-11T07:01:10.049Z,94729.22
2023-05-11T07:04:19.557Z,94729.41
2023-05-11T07:07:27.738Z,94730.41
2023-05-11T07:10:36.092Z,94731.59
2023-05-11T07:13:45.311Z,94735.06
2023-05-11T07:16:53.618Z,94733.69
2023-05-11T07:20:03.878Z,94735.50
2023-05-11T07:23:12.097Z,94736.91
2023-05-11T07:26:22.060Z,94737.22
2023-05-11T07:29:31.022Z,94735.19
2023-05-11T07:32:44.038Z,94736.66
2023-05-11T07:36:15.256Z,94723.78
2023-05-11T07:39:24.862Z,94736.22
2023-05-11T07:42:33.089Z,94730.38
2023-05-11T07:45:41.532Z,94729.81
2023-05-11T07:48:53.286Z,94730.69
2023-05-11T07:52:07.314Z,94742.06
2023-05-11T07:55:15.478Z,94733.59
2023-05-11T07:58:23.723Z,94729.44
2023-05-11T08:01:32.265Z,94732.09
2023-05-11T08:04:40.788Z,94732.22
2023-05-11T08:07:50.312Z,94729.56
2023-05-11T08:10:58.686Z,94729.13
2023-05-11T08:14:06.910Z,94733.28
2023-05-11T08:17:15.268Z,94730.09
2023-05-11T08:20:23.646Z,94731.16
2023-05-11T08:23:33.427Z,94732.59
2023-05-11T08:26:41.717Z,94731.03
2023-05-11T08:29:49.957Z,94720.34
2023-05-11T08:32:59.236Z,94725.25
2023-05-11T08:36:09.130Z,94718.16
2023-05-11T08:39:33.228Z,94720.97
2023-05-11T08:42:57.789Z,94719.81
2023-05-11T08:46:12.308Z,94714.06
2023-05-11T08:49:20.866Z,94714.31
2023-05-11T08:52:29.105Z,94719.13
2023-05-11T08:55:40.559Z,94717.41
2023-05-11T08:58:56.841Z,94713.78
2023-05-11T09:02:07.373Z,94720.63
2023-05-11T09:05:16.468Z,94713.22
2023-05-11T09:08:35.519Z,94704.94
2023-05-11T09:11:46.135Z,94717.25
2023-05-11T09:14:54.577Z,94713.59
2023-05-11T09:18:03.660Z,94721.06
2023-05-11T09:21:13.918Z,94714.19
2023-05-11T09:24:22.632Z,94712.44
2023-05-11T09:27:32.507Z,94719.34
2023-05-11T09:30:41.099Z,94713.19
2023-05-11T09:33:49.242Z,94717.84
2023-05-11T09:36:58.403Z,94710.28
2023-05-11T09:40:25.572Z,94712.13
2023-05-11T09:43:36.230Z,94716.22
2023-05-11T09:46:52.432Z,94711.94
2023-05-11T09:50:00.891Z,94714.22
2023-05-11T09:53:10.331Z,94708.94
2023-05-11T09:56:18.471Z,94705.88
2023-05-11T09:59:42.164Z,94713.84
2023-05-11T10:03:03.037Z,94719.81
2023-05-11T10:06:11.394Z,94713.28
2023-05-11T10:09:25.441Z,94707.75
2023-05-11T10:12:38.240Z,94705.31
2023-05-11T10:15:52.178Z,94714.69
2023-05-11T10:19:02.089Z,94713.69
2023-05-11T10:22:12.359Z,94708.56
2023-05-11T10:25:23.492Z,94716.16
2023-05-11T10:28:32.274Z,94706.72
2023-05-11T10:31:43.638Z,94711.81
2023-05-11T10:34:51.906Z,94717.91
2023-05-11T10:38:02.809Z,94709.06
2023-05-11T10:41:30.409Z,94707.06
2023-05-11T10:45:21.570Z,94706.88
2023-05-11T10:52:29.533Z,94700.25
2023-05-11T10:56:02.008Z,94692.75
2023-05-11T10:59:32.882Z,94694.84
2023-05-11T11:02:41.596Z,94701.63
2023-05-11T11:05:49.867Z,94699.47
2023-05-11T11:09:02.637Z,94695.19
2023-05-11T11:12:12.598Z,94703.91
2023-05-11T11:15:21.042Z,94699.03
2023-05-11T11:18:31.209Z,94694.94
2023-05-11T11:21:44.161Z,94696.13
2023-05-11T11:24:54.811Z,94693.81
2023-05-11T11:28:02.917Z,94699.63
2023-05-11T11:31:28.109Z,94700.03
2023-05-11T11:34:40.260Z,94695.72
2023-05-11T11:38:04.747Z,94696.84
2023-05-11T11:41:30.597Z,94695.88
2023-05-11T11:44:40.722Z,94700.81
2023-05-11T11:48:17.509Z,94700.34
2023-05-11T11:51:40.131Z,94697.91
2023-05-11T11:54:48.497Z,94697.94
2023-05-11T11:57:58.090Z,94698.63
2023-05-11T12:01:07.643Z,94699.31
2023-05-11T12:04:54.017Z,94704.78
2023-05-11T12:08:11.108Z,94698.63
2023-05-11T12:11:19.524Z,94695.16
2023-05-11T12:14:29.709Z,94690.63
2023-05-11T12:17:40.769Z,94689.38
2023-05-11T12:20:49.173Z,94691.41
2023-05-11T12:24:01.443Z,94684.25
2023-05-11T12:27:09.719Z,94687.25
2023-05-11T12:30:23.860Z,94687.44
2023-05-11T12:33:32.156Z,94686.03
2023-05-11T12:36:40.833Z,94690.22
2023-05-11T12:39:55.920Z,94679.34
2023-05-11T12:43:04.170Z,94685.00
2023-05-11T12:46:14.311Z,94679.03
2023-05-11T12:49:26.199Z,94682.91
2023-05-11T12:52:35.446Z,94683.72
2023-05-11T12:55:44.056Z,94673.72
2023-05-11T12:58:53.791Z,94670.84
2023-05-11T13:02:14.900Z,94673.31
2023-05-11T13:05:26.661Z,94673.28
2023-05-11T13:08:35.521Z,94667.72
2023-05-11T13:11:44.025Z,94661.56
2023-05-11T13:15:07.998Z,94664.06
2023-05-11T13:18:18.582Z,94652.41
2023-05-11T13:21:27.118Z,94662.25
2023-05-11T13:24:35.558Z,94663.06
2023-05-11T13:27:43.699Z,94654.03
2023-05-11T13:30:53.127Z,94653.97
2023-05-11T13:34:02.679Z,94658.09
2023-05-11T13:37:10.882Z,94653.56
2023-05-11T13:40:19.659Z,94660.16
2023-05-11T13:43:29.746Z,94655.06
2023-05-11T13:46:38.447Z,94665.03
2023-05-11T13:49:48.080Z,94658.06
2023-05-11T13:52:56.488Z,94662.59
2023-05-11T13:56:05.902Z,94659.19
2023-05-11T13:59:14.391Z,94663.25
2023-05-11T14:02:22.706Z,94653.03
2023-05-11T14:05:32.506Z,94650.53
2023-05-11T14:08:40.943Z,94647.38
2023-05-11T14:11:51.183Z,94646.25
2023-05-11T14:14:59.591Z,94644.59
2023-05-11T14:18:08.166Z,94648.00
2023-05-11T14:21:18.084Z,94653.44
2023-05-11T14:24:26.546Z,94654.03
2023-05-11T14:27:34.684Z,94644.22
2023-05-11T14:30:43.119Z,94644.19
2023-05-11T14:33:51.759Z,94647.09
2023-05-11T14:37:01.937Z,94641.84
2023-05-11T14:40:11.089Z,94647.75
2023-05-11T14:43:19.559Z,94647.75
2023-05-11T14:46:27.953Z,94643.47
2023-05-11T14:49:36.205Z,94645.13
2023-05-11T14:52:45.745Z,94644.66
2023-05-11T14:55:53.974Z,94639.38
2023-05-11T14:59:02.319Z,94640.19
2023-05-11T15:02:10.610Z,94639.53
2023-05-11T15:05:19.242Z,94643.03
2023-05-11T15:08:30.686Z,94641.03
2023-05-11T15:11:39.139Z,94634.06
2023-05-11T15:14:47.309Z,94640.41
2023-05-11T15:17:55.936Z,94642.66
2023-05-11T15:21:04.707Z,94641.44
2023-05-11T15:24:14.472Z,94643.06
2023-05-11T15:27:22.689Z,94656.13
2023-05-11T15:30:32.611Z,94659.56
2023-05-11T15:33:41.445Z,94648.72
2023-05-11T15:36:50.099Z,94648.09
2023-05-11T15:39:59.906Z,94651.38
2023-05-11T15:43:08.806Z,94659.44
2023-05-11T15:46:17.197Z,94653.47
2023-05-11T15:49:25.430Z,94659.22
2023-05-11T15:52:33.542Z,94658.63
2023-05-11T15:55:46.268Z,94660.28
2023-05-11T15:58:54.532Z,94661.91
2023-05-11T16:02:03.101Z,94663.13
2023-05-11T16:05:11.345Z,94665.56
2023-05-11T16:08:20.261Z,94665.16
2023-05-11T16:11:29.836Z,94659.84
2023-05-11T16:14:38.014Z,94652.88
2023-05-11T16:17:46.333Z,94662.72
2023-05-11T16:20:54.438Z,94661.28
2023-05-11T16:24:02.899Z,94657.00
2023-05-11T16:27:13.109Z,94653.72
2023-05-11T16:30:25.521Z,94658.44
2023-05-11T16:33:34.403Z,94651.47
2023-05-11T16:36:43.561Z,94650.44
2023-05-11T16:39:51.817Z,94646.31
2023-05-11T16:43:01.435Z,94640.41
2023-05-11T16:46:10.978Z,94645.13
2023-05-11T16:49:19.351Z,94640.19
2023-05-11T16:52:27.942Z,94638.78
2023-05-11T16:55:36.319Z,94639.19
2023-05-11T16:58:45.897Z,94632.41
2023-05-11T17:01:54.292Z,94634.88
2023-05-11T17:05:02.955Z,94633.84
2023-05-11T17:08:11.271Z,94636.50
2023-05-11T17:11:19.903Z,94623.63
2023-05-11T17:14:29.664Z,94634.06
2023-05-11T17:17:38.528Z,94633.63
2023-05-11T17:20:52.615Z,94628.94
2023-05-11T17:24:00.765Z,94634.88
2023-05-11T17:27:09.373Z,94634.44
2023-05-11T17:30:19.368Z,94638.78
2023-05-11T17:33:28.161Z,94640.41
2023-05-11T17:36:36.459Z,94634.88
2023-05-11T17:39:47.246Z,94633.84
2023-05-11T17:42:56.432Z,94633.22
2023-05-11T17:46:06.196Z,94630.38
2023-05-11T17:49:14.562Z,94633.25
2023-05-11T17:52:24.702Z,94632.81
2023-05-11T17:55:33.049Z,94632.00
2023-05-11T17:58:43.126Z,94640.81
2023-05-11T18:01:53.346Z,94637.72
2023-05-11T18:05:05.879Z,94638.16
2023-05-11T18:08:14.543Z,94638.75
2023-05-11T18:11:23.176Z,94630.13
2023-05-11T18:14:31.735Z,94632.16
2023-05-11T18:17:41.593Z,94643.22
2023-05-11T18:20:50.156Z,94639.50
2023-05-11T18:23:58.601Z,94638.69
2023-05-11T18:27:07.175Z,94641.34
2023-05-11T18:30:16.139Z,94642.13
2023-05-11T18:33:26.078Z,94647.03
2023-05-11T18:36:34.595Z,94640.06
2023-05-11T18:39:43.188Z,94649.84
2023-05-11T18:42:53.748Z,94650.06
2023-05-11T18:46:02.008Z,94646.78
2023-05-11T18:49:11.660Z,94644.13
2023-05-11T18:52:20.241Z,94644.50
2023-05-11T18:55:30.920Z,94648.38
2023-05-11T18:58:39.834Z,94656.53
2023-05-11T19:01:48.788Z,94645.69
2023-05-11T19:04:58.466Z,94649.38
2023-05-11T19:08:06.706Z,94651.34
2023-05-11T19:11:15.639Z,94657.31
2023-05-11T19:14:23.963Z,94656.28
2023-05-11T19:17:32.291Z,94654.47
2023-05-11T19:20:42.323Z,94652.16
2023-05-11T19:23:50.499Z,94651.78
2023-05-11T19:27:06.446Z,94665.25
2023-05-11T19:30:16.096Z,94661.56
2023-05-11T19:33:25.024Z,94666.25
2023-05-11T19:36:35.218Z,94661.97
2023-05-11T19:39:47.721Z,94658.28
2023-05-11T19:43:01.232Z,94662.59
2023-05-11T19:46:10.269Z,94663.81
2023-05-11T19:49:19.895Z,94663.81
2023-05-11T19:52:29.855Z,94659.13
2023-05-11T19:55:38.607Z,94669.28
2023-05-11T19:58:48.430Z,94666.88
2023-05-11T20:01:57.526Z,94676.28
2023-05-11T20:05:06.655Z,94663.81
2023-05-11T20:08:16.514Z,94670.13
2023-05-11T20:11:25.384Z,94662.41
2023-05-11T20:14:36.111Z,94671.78
2023-05-11T20:17:44.584Z,94664.22
2023-05-11T20:20:53.491Z,94666.88
2023-05-11T20:24:03.507Z,94657.50
2023-05-11T20:27:12.058Z,94664.84
2023-05-11T20:30:21.171Z,94664.84
2023-05-11T20:36:41.662Z,94657.50
2023-05-11T20:39:51.657Z,94659.34
2023-05-11T20:43:00.482Z,94653.66
2023-05-11T20:46:08.884Z,94646.06
2023-05-11T20:49:30.893Z,94652.19
2023-05-11T20:52:46.676Z,94647.69
2023-05-11T20:55:56.770Z,94654.16
2023-05-11T20:59:05.187Z,94653.19
2023-05-11T21:02:14.201Z,94645.66
2023-05-11T21:05:25.424Z,94649.16
2023-05-11T21:08:33.869Z,94644.06
2023-05-11T21:11:43.824Z,94645.25
2023-05-11T21:14:52.188Z,94636.91
2023-05-11T21:18:02.039Z,94639.94
2023-05-11T21:21:11.190Z,94646.09
2023-05-11T21:24:20.219Z,94637.53
2023-05-11T21:27:30.085Z,94638.75
2023-05-11T21:30:38.570Z,94649.38
2023-05-11T21:33:47.262Z,94640.81
2023-05-11T21:36:55.638Z,94640.00
2023-05-11T21:40:04.724Z,94635.50
2023-05-11T21:43:14.710Z,94640.00
2023-05-11T21:46:23.503Z,94648.34
2023-05-11T21:49:32.990Z,94648.16
2023-05-11T21:52:41.229Z,94654.09
2023-05-11T21:55:50.870Z,94652.66
2023-05-11T21:59:00.397Z,94651.47
2023-05-11T22:02:08.796Z,94657.16
2023-05-11T22:05:18.557Z,94648.56
2023-05-11T22:08:27.259Z,94649.44
2023-05-11T22:11:39.739Z,94656.16
2023-05-11T22:14:49.484Z,94661.66
2023-05-11T22:17:57.825Z,94659.25
2023-05-11T22:21:06.594Z,94658.41
2023-05-11T22:24:14.744Z,94666.56
2023-05-11T22:27:23.181Z,94664.13
2023-05-11T22:30:32.759Z,94672.72
2023-05-11T22:33:41.195Z,94662.66
2023-05-11T22:36:49.570Z,94669.84
2023-05-11T22:39:57.733Z,94665.38
2023-05-11T22:43:06.225Z,94658.00
2023-05-11T22:46:17.198Z,94665.13
2023-05-11T22:49:25.860Z,94660.44
2023-05-11T22:52:34.074Z,94664.56
2023-05-11T22:55:43.130Z,94653.09
2023-05-11T22:58:52.030Z,94659.81
2023-05-11T23:02:03.379Z,94652.28
2023-05-11T23:05:11.636Z,94656.16
2023-05-11T23:08:22.917Z,94657.16
2023-05-11T23:11:31.380Z,94656.34
2023-05-11T23:14:39.801Z,94656.75
2023-05-11T23:17:49.822Z,94650.84
2023-05-11T23:20:58.894Z,94643.47
2023-05-11T23:24:07.956Z,94650.16
2023-05-11T23:27:17.149Z,94649.16
2023-05-11T23:30:25.587Z,94648.53
2023-05-11T23:33:35.680Z,94653.78
2023-05-11T23:36:44.116Z,94645.03
2023-05-11T23:39:52.706Z,94648.69
2023-05-11T23:43:01.513Z,94651.72
2023-05-11T23:46:09.700Z,94646.84
2023-05-11T23:49:19.487Z,94647.78
2023-05-11T23:52:27.969Z,94650.34
2023-05-11T23:55:36.249Z,94649.34
2023-05-11T23:58:46.269Z,94658.50
